PWSweather.com
Personal Weather Stations
Station Observations
WIKENOS15
47th Ave & 30th St, Kenosha, WI 53144

47th Ave & 30th StKenosha, WI 53144

Lat: 42.612, Lon: -87.866

Elevation: 697

Station Type: Oregon Scientific 100N

Latest ConditionsUpdated 4:30:01 PM CST Saturday, Jan 31, 2015
Currently Today's Max Today's Min Today's Average
Temperature 32.3°F0.2°C 35.9°F2.2°C 18.1°F-7.7°C 27.7°F-2.4°C
Dew Point 25.6°F-3.6°C 26.1°F-3.3°C 14.1°F-9.9°C 20.9°F-6.2°C
Winds 0.5 mph E0.8 kmh E 3.9 mph W6.3 kmh W - 1.7 mph 2.7 kmh
Wind Gusts 1.5 mph2.4 kmh 8.2 mph13.2 kmh - -
Humidity 76% 86% 64% 76%
Pressure 30.19 in1022.4 mb 30.34 in1027.4 mb 30.17 in1021.7 mb -
Hour Temp Dew Point Humidity Winds Wind Gusts Pressure Precip Precip Rate Daily Precip Total
04:30 PM 32.3°F0.2°C 25.6°F-3.6°C 76% 0.5 mph E0.8 kmh E 1.5 mph2.4 kmh 30.19 in1022.4 mb 0.00 in0.0 mm 0.00 in/hr0.0 mm/hr 0.00 in0.0 mm
04:15 PM 32.7°F0.4°C 25.0°F-3.9°C 73% 1.3 mph E2.1 kmh E 1.5 mph2.4 kmh 30.19 in1022.4 mb 0.00 in0.0 mm 0.00 in/hr0.0 mm/hr 0.00 in0.0 mm
04:00 PM 33.4°F0.8°C 25.7°F-3.5°C 73% 0.8 mph E1.3 kmh E 1.5 mph2.4 kmh 30.18 in1022.0 mb 0.00 in0.0 mm 0.00 in/hr0.0 mm/hr 0.00 in0.0 mm
03:45 PM 34.6°F1.4°C 26.1°F-3.3°C 71% 0.7 mph ENE1.1 kmh ENE 1.5 mph2.4 kmh 30.18 in1022.0 mb 0.00 in0.0 mm 0.00 in/hr0.0 mm/hr 0.00 in0.0 mm
03:30 PM 35.4°F1.9°C 25.5°F-3.6°C 67% Calm Calm -- 30.18 in1022.0 mb 0.00 in0.0 mm 0.00 in/hr0.0 mm/hr 0.00 in0.0 mm
03:15 PM 35.7°F2.1°C 25.4°F-3.7°C 66% 0.8 mph WNW1.3 kmh WNW 1.5 mph2.4 kmh 30.18 in1022.0 mb 0.00 in0.0 mm 0.00 in/hr0.0 mm/hr 0.00 in0.0 mm
03:00 PM 35.8°F2.1°C 25.2°F-3.8°C 65% 1.0 mph NNW1.6 kmh NNW 2.3 mph3.7 kmh 30.17 in1021.7 mb 0.00 in0.0 mm 0.00 in/hr0.0 mm/hr 0.00 in0.0 mm
02:45 PM 35.9°F2.2°C 25.3°F-3.7°C 65% 1.2 mph NNW1.9 kmh NNW 2.3 mph3.7 kmh 30.17 in1021.7 mb 0.00 in0.0 mm 0.00 in/hr0.0 mm/hr 0.00 in0.0 mm
02:30 PM 35.8°F2.1°C 25.6°F-3.6°C 66% 1.1 mph NNW1.8 kmh NNW 1.5 mph2.4 kmh 30.18 in1022.0 mb 0.00 in0.0 mm 0.00 in/hr0.0 mm/hr 0.00 in0.0 mm
02:15 PM 35.7°F2.1°C 25.1°F-3.8°C 65% 0.7 mph N1.1 kmh N 0.8 mph1.3 kmh 30.17 in1021.7 mb 0.00 in0.0 mm 0.00 in/hr0.0 mm/hr 0.00 in0.0 mm
02:00 PM 35.6°F2.0°C 25.4°F-3.7°C 66% 1.2 mph NW1.9 kmh NW 2.3 mph3.7 kmh 30.17 in1021.7 mb 0.00 in0.0 mm 0.00 in/hr0.0 mm/hr 0.00 in0.0 mm
01:45 PM 35.6°F2.0°C 25.0°F-3.9°C 65% 0.8 mph NW1.3 kmh NW 1.5 mph2.4 kmh 30.17 in1021.7 mb 0.00 in0.0 mm 0.00 in/hr0.0 mm/hr 0.00 in0.0 mm
01:30 PM 35.3°F1.8°C 25.1°F-3.8°C 66% 1.1 mph NNW1.8 kmh NNW 1.5 mph2.4 kmh 30.18 in1022.0 mb 0.00 in0.0 mm 0.00 in/hr0.0 mm/hr 0.00 in0.0 mm
01:15 PM 35.4°F1.9°C 25.2°F-3.8°C 66% 1.1 mph NW1.8 kmh NW 3.0 mph4.8 kmh 30.18 in1022.0 mb 0.00 in0.0 mm 0.00 in/hr0.0 mm/hr 0.00 in0.0 mm
01:00 PM 35.9°F2.2°C 24.9°F-3.9°C 64% 1.5 mph N2.4 kmh N 3.0 mph4.8 kmh 30.18 in1022.0 mb 0.00 in0.0 mm 0.00 in/hr0.0 mm/hr 0.00 in0.0 mm
12:45 PM 35.9°F2.2°C 25.3°F-3.7°C 65% 1.5 mph NW2.4 kmh NW 3.0 mph4.8 kmh 30.18 in1022.0 mb 0.00 in0.0 mm 0.00 in/hr0.0 mm/hr 0.00 in0.0 mm
12:30 PM 35.5°F1.9°C 24.9°F-3.9°C 65% 2.4 mph W3.9 kmh W 4.5 mph7.2 kmh 30.18 in1022.0 mb 0.00 in0.0 mm 0.00 in/hr0.0 mm/hr 0.00 in0.0 mm
12:15 PM 35.0°F1.7°C 25.1°F-3.8°C 67% 2.8 mph W4.5 kmh W 4.5 mph7.2 kmh 30.18 in1022.0 mb 0.00 in0.0 mm 0.00 in/hr0.0 mm/hr 0.00 in0.0 mm
12:00 PM 34.7°F1.5°C 24.1°F-4.4°C 65% 3.5 mph NW5.6 kmh NW 3.7 mph6.0 kmh 30.18 in1022.0 mb 0.00 in0.0 mm 0.00 in/hr0.0 mm/hr 0.00 in0.0 mm
11:45 AM 34.8°F1.6°C 24.2°F-4.3°C 65% 3.1 mph WNW5.0 kmh WNW 5.2 mph8.4 kmh 30.19 in1022.4 mb 0.00 in0.0 mm 0.00 in/hr0.0 mm/hr 0.00 in0.0 mm
11:30 AM 34.3°F1.3°C 24.5°F-4.2°C 67% 3.6 mph WSW5.8 kmh WSW 5.2 mph8.4 kmh 30.19 in1022.4 mb 0.00 in0.0 mm 0.00 in/hr0.0 mm/hr 0.00 in0.0 mm
11:15 AM 34.2°F1.2°C 24.4°F-4.2°C 67% 3.2 mph WNW5.1 kmh WNW 5.2 mph8.4 kmh 30.19 in1022.4 mb 0.00 in0.0 mm 0.00 in/hr0.0 mm/hr 0.00 in0.0 mm
11:00 AM 33.7°F0.9°C 24.2°F-4.3°C 68% 3.5 mph W5.6 kmh W 6.0 mph9.7 kmh 30.20 in1022.7 mb 0.00 in0.0 mm 0.00 in/hr0.0 mm/hr 0.00 in0.0 mm
10:45 AM 33.2°F0.7°C 23.7°F-4.6°C 68% 3.7 mph W6.0 kmh W 5.2 mph8.4 kmh 30.20 in1022.7 mb 0.00 in0.0 mm 0.00 in/hr0.0 mm/hr 0.00 in0.0 mm
10:30 AM 32.3°F0.2°C 23.9°F-4.5°C 71% 1.8 mph WSW2.9 kmh WSW 3.0 mph4.8 kmh 30.20 in1022.7 mb 0.00 in0.0 mm 0.00 in/hr0.0 mm/hr 0.00 in0.0 mm
10:15 AM 31.8°F-0.1°C 23.2°F-4.9°C 70% 3.2 mph WNW5.1 kmh WNW 4.5 mph7.2 kmh 30.20 in1022.7 mb 0.00 in0.0 mm 0.00 in/hr0.0 mm/hr 0.00 in0.0 mm
10:00 AM 31.7°F-0.2°C 23.1°F-4.9°C 70% 3.9 mph W6.3 kmh W 8.2 mph13.2 kmh 30.20 in1022.7 mb 0.00 in0.0 mm 0.00 in/hr0.0 mm/hr 0.00 in0.0 mm
09:45 AM 31.7°F-0.2°C 23.0°F-5.0°C 70% 3.2 mph WSW5.1 kmh WSW 4.5 mph7.2 kmh 30.20 in1022.7 mb 0.00 in0.0 mm 0.00 in/hr0.0 mm/hr 0.00 in0.0 mm
09:30 AM 31.3°F-0.4°C 22.7°F-5.2°C 70% 3.2 mph WSW5.1 kmh WSW 7.5 mph12.1 kmh 30.21 in1023.0 mb 0.00 in0.0 mm 0.00 in/hr0.0 mm/hr 0.00 in0.0 mm
09:15 AM 30.7°F-0.7°C 22.7°F-5.2°C 72% 3.1 mph W5.0 kmh W 8.2 mph13.2 kmh 30.21 in1023.0 mb 0.00 in0.0 mm 0.00 in/hr0.0 mm/hr 0.00 in0.0 mm
09:00 AM 29.9°F-1.2°C 22.0°F-5.6°C 72% 2.6 mph WSW4.2 kmh WSW 3.0 mph4.8 kmh 30.22 in1023.4 mb 0.00 in0.0 mm 0.00 in/hr0.0 mm/hr 0.00 in0.0 mm
08:45 AM 29.2°F-1.6°C 21.9°F-5.6°C 74% 3.2 mph WSW5.1 kmh WSW 6.0 mph9.7 kmh 30.21 in1023.0 mb 0.00 in0.0 mm 0.00 in/hr0.0 mm/hr 0.00 in0.0 mm
08:30 AM 28.3°F-2.1°C 21.7°F-5.7°C 76% 1.6 mph WSW2.6 kmh WSW 2.3 mph3.7 kmh 30.22 in1023.4 mb 0.00 in0.0 mm 0.00 in/hr0.0 mm/hr 0.00 in0.0 mm
08:15 AM 27.2°F-2.7°C 21.2°F-6.0°C 78% 2.0 mph WSW3.2 kmh WSW 4.5 mph7.2 kmh 30.22 in1023.4 mb 0.00 in0.0 mm 0.00 in/hr0.0 mm/hr 0.00 in0.0 mm
08:00 AM 26.6°F-3.0°C 20.7°F-6.3°C 78% 1.9 mph WSW3.1 kmh WSW 2.3 mph3.7 kmh 30.22 in1023.4 mb 0.00 in0.0 mm 0.00 in/hr0.0 mm/hr 0.00 in0.0 mm
07:45 AM 26.6°F-3.0°C 21.0°F-6.1°C 79% 2.5 mph SW4.0 kmh SW 3.7 mph6.0 kmh 30.22 in1023.4 mb 0.00 in0.0 mm 0.00 in/hr0.0 mm/hr 0.00 in0.0 mm
07:30 AM 26.5°F-3.1°C 20.9°F-6.2°C 79% 1.3 mph WSW2.1 kmh WSW 2.3 mph3.7 kmh 30.22 in1023.4 mb 0.00 in0.0 mm 0.00 in/hr0.0 mm/hr 0.00 in0.0 mm
07:15 AM 26.2°F-3.2°C 20.9°F-6.2°C 80% 2.1 mph SW3.4 kmh SW 3.0 mph4.8 kmh 30.22 in1023.4 mb 0.00 in0.0 mm 0.00 in/hr0.0 mm/hr 0.00 in0.0 mm
07:00 AM 25.8°F-3.4°C 20.5°F-6.4°C 80% 1.7 mph SW2.7 kmh SW 2.3 mph3.7 kmh 30.22 in1023.4 mb 0.00 in0.0 mm 0.00 in/hr0.0 mm/hr 0.00 in0.0 mm
06:45 AM 25.5°F-3.6°C 20.5°F-6.4°C 81% 1.7 mph WSW2.7 kmh WSW 3.0 mph4.8 kmh 30.23 in1023.7 mb 0.00 in0.0 mm 0.00 in/hr0.0 mm/hr 0.00 in0.0 mm
06:30 AM 25.0°F-3.9°C 20.0°F-6.7°C 81% 1.7 mph SW2.7 kmh SW 3.7 mph6.0 kmh 30.23 in1023.7 mb 0.00 in0.0 mm 0.00 in/hr0.0 mm/hr 0.00 in0.0 mm
06:15 AM 24.3°F-4.3°C 19.8°F-6.8°C 83% 2.3 mph WSW3.7 kmh WSW 3.7 mph6.0 kmh 30.23 in1023.7 mb 0.00 in0.0 mm 0.00 in/hr0.0 mm/hr 0.00 in0.0 mm
06:00 AM 23.2°F-4.9°C 19.4°F-7.0°C 85% 1.9 mph WSW3.1 kmh WSW 3.0 mph4.8 kmh 30.23 in1023.7 mb 0.00 in0.0 mm 0.00 in/hr0.0 mm/hr 0.00 in0.0 mm
05:45 AM 21.8°F-5.7°C 18.3°F-7.6°C 86% 1.5 mph W2.4 kmh W 3.0 mph4.8 kmh 30.23 in1023.7 mb 0.00 in0.0 mm 0.00 in/hr0.0 mm/hr 0.00 in0.0 mm
05:30 AM 21.1°F-6.1°C 17.6°F-8.0°C 86% 1.4 mph SW2.3 kmh SW 3.0 mph4.8 kmh 30.24 in1024.0 mb 0.00 in0.0 mm 0.00 in/hr0.0 mm/hr 0.00 in0.0 mm
05:15 AM 21.2°F-6.0°C 17.7°F-7.9°C 86% 1.4 mph SW2.3 kmh SW 2.3 mph3.7 kmh 30.24 in1024.0 mb 0.00 in0.0 mm 0.00 in/hr0.0 mm/hr 0.00 in0.0 mm
05:00 AM 21.1°F-6.1°C 17.6°F-8.0°C 86% 1.3 mph WSW2.1 kmh WSW 2.3 mph3.7 kmh 30.24 in1024.0 mb 0.00 in0.0 mm 0.00 in/hr0.0 mm/hr 0.00 in0.0 mm
04:45 AM 21.1°F-6.1°C 17.3°F-8.2°C 85% 0.8 mph SW1.3 kmh SW 1.5 mph2.4 kmh 30.24 in1024.0 mb 0.00 in0.0 mm 0.00 in/hr0.0 mm/hr 0.00 in0.0 mm
04:30 AM 21.4°F-5.9°C 17.3°F-8.2°C 84% 1.3 mph SW2.1 kmh SW 1.5 mph2.4 kmh 30.25 in1024.4 mb 0.00 in0.0 mm 0.00 in/hr0.0 mm/hr 0.00 in0.0 mm
04:15 AM 21.4°F-5.9°C 17.6°F-8.0°C 85% 2.2 mph SW3.5 kmh SW 3.0 mph4.8 kmh 30.25 in1024.4 mb 0.00 in0.0 mm 0.00 in/hr0.0 mm/hr 0.00 in0.0 mm
04:00 AM 21.2°F-6.0°C 17.1°F-8.3°C 84% 2.3 mph SW3.7 kmh SW 3.0 mph4.8 kmh 30.26 in1024.7 mb 0.00 in0.0 mm 0.00 in/hr0.0 mm/hr 0.00 in0.0 mm
03:45 AM 21.2°F-6.0°C 17.1°F-8.3°C 84% 1.7 mph SSW2.7 kmh SSW 3.7 mph6.0 kmh 30.26 in1024.7 mb 0.00 in0.0 mm 0.00 in/hr0.0 mm/hr 0.00 in0.0 mm
03:30 AM 20.9°F-6.2°C 16.8°F-8.4°C 84% 1.4 mph SSW2.3 kmh SSW 2.3 mph3.7 kmh 30.27 in1025.1 mb 0.00 in0.0 mm 0.00 in/hr0.0 mm/hr 0.00 in0.0 mm
03:15 AM 20.5°F-6.4°C 16.2°F-8.8°C 83% 0.9 mph SSW1.4 kmh SSW 2.3 mph3.7 kmh 30.28 in1025.4 mb 0.00 in0.0 mm 0.00 in/hr0.0 mm/hr 0.00 in0.0 mm
03:00 AM 20.9°F-6.2°C 16.5°F-8.6°C 83% 0.8 mph SSW1.3 kmh SSW 0.8 mph1.3 kmh 30.29 in1025.7 mb 0.00 in0.0 mm 0.00 in/hr0.0 mm/hr 0.00 in0.0 mm
02:45 AM 21.2°F-6.0°C 16.8°F-8.4°C 83% 0.2 mph S0.3 kmh S 0.8 mph1.3 kmh 30.29 in1025.7 mb 0.00 in0.0 mm 0.00 in/hr0.0 mm/hr 0.00 in0.0 mm
02:30 AM 21.2°F-6.0°C 16.5°F-8.6°C 82% Calm Calm -- 30.30 in1026.1 mb 0.00 in0.0 mm 0.00 in/hr0.0 mm/hr 0.00 in0.0 mm
02:15 AM 20.8°F-6.2°C 16.4°F-8.7°C 83% 1.0 mph SSW1.6 kmh SSW 1.5 mph2.4 kmh 30.31 in1026.4 mb 0.00 in0.0 mm 0.00 in/hr0.0 mm/hr 0.00 in0.0 mm
02:00 AM 20.5°F-6.4°C 16.1°F-8.8°C 83% 1.3 mph SSW2.1 kmh SSW 2.3 mph3.7 kmh 30.32 in1026.8 mb 0.00 in0.0 mm 0.00 in/hr0.0 mm/hr 0.00 in0.0 mm
01:45 AM 20.2°F-6.6°C 16.1°F-8.8°C 84% 0.6 mph SSW1.0 kmh SSW 1.5 mph2.4 kmh 30.32 in1026.8 mb 0.00 in0.0 mm 0.00 in/hr0.0 mm/hr 0.00 in0.0 mm
01:30 AM 19.7°F-6.8°C 15.6°F-9.1°C 84% 0.8 mph SSW1.3 kmh SSW 1.5 mph2.4 kmh 30.32 in1026.8 mb 0.00 in0.0 mm 0.00 in/hr0.0 mm/hr 0.00 in0.0 mm
01:15 AM 19.1°F-7.2°C 15.3°F-9.3°C 85% 0.5 mph SSW0.8 kmh SSW 1.5 mph2.4 kmh 30.32 in1026.8 mb 0.00 in0.0 mm 0.00 in/hr0.0 mm/hr 0.00 in0.0 mm
01:00 AM 18.5°F-7.5°C 14.7°F-9.6°C 85% 0.7 mph SSW1.1 kmh SSW 1.5 mph2.4 kmh 30.32 in1026.8 mb 0.00 in0.0 mm 0.00 in/hr0.0 mm/hr 0.00 in0.0 mm
12:45 AM 18.1°F-7.7°C 14.1°F-9.9°C 84% 1.0 mph SSW1.6 kmh SSW 1.5 mph2.4 kmh 30.33 in1027.1 mb 0.00 in0.0 mm 0.00 in/hr0.0 mm/hr 0.00 in0.0 mm
12:30 AM 18.4°F-7.6°C 14.4°F-9.8°C 84% Calm Calm 1.5 mph2.4 kmh 30.33 in1027.1 mb 0.00 in0.0 mm 0.00 in/hr0.0 mm/hr 0.00 in0.0 mm
12:15 AM 18.7°F-7.4°C 14.7°F-9.6°C 84% 1.5 mph S2.4 kmh S 2.3 mph3.7 kmh 30.33 in1027.1 mb 0.00 in0.0 mm 0.00 in/hr0.0 mm/hr 0.00 in0.0 mm
12:00 AM 18.6°F-7.4°C 14.8°F-9.6°C 85% 1.9 mph SW3.1 kmh SW 3.0 mph4.8 kmh 30.34 in1027.4 mb 0.00 in0.0 mm 0.00 in/hr0.0 mm/hr 0.00 in0.0 mm